< < Back
Terminal Aerodrome Forecast


Current Version              Previous Versions:   1  2  3  4  5  6  7  8  9  

Terminal Aerodrome Forecast

066
FTUS42 KMLB 301000 AAC
TAFMCO
TAF AMD
KMCO 301009Z 3010/0106 24005KT P6SM SCT006 BKN014 BKN035
      TEMPO 3010/3012 BKN006
     FM301200 25006KT P6SM VCSH SCT010 BKN020
     FM301600 28007KT P6SM VCSH SCT010 OVC035
      TEMPO 3016/3020 3SM SHRA BKN025
     FM302000 29007KT P6SM SCT020 OVC040
      TEMPO 3020/3023 2SM SHRA BKN020
     FM010000 30004KT P6SM VCSH SCT020 BKN040
     FM010300 31003KT P6SM SCT020 SCT100 BKN250=



Latest METAR

387
SAUS70 KWBC 301300 RRA
MTRMCO
METAR KMCO 301253Z 23004KT 8SM BKN007 BKN033 BKN150 24/23 A2986 RMK AO2
SLP111 T02440233


USA.gov is the U.S. government's official web portal to all federal, state and local government web resources and services.